createdAt,value
2022-10-11T00:00:37.634Z,82.41
2022-10-11T00:03:36.924Z,82.22
2022-10-11T00:06:07.665Z,82.13
2022-10-11T00:08:36.716Z,82.06
2022-10-11T00:11:10.237Z,82.00
2022-10-11T00:13:42.977Z,82.16
2022-10-11T00:16:14.657Z,82.29
2022-10-11T00:18:47.495Z,82.17
2022-10-11T00:21:16.998Z,82.17
2022-10-11T00:23:45.656Z,82.27
2022-10-11T00:26:18.065Z,82.27
2022-10-11T00:28:46.758Z,82.22
2022-10-11T00:31:16.816Z,82.42
2022-10-11T00:33:48.357Z,82.44
2022-10-11T00:36:19.061Z,82.49
2022-10-11T00:38:48.036Z,82.50
2022-10-11T00:41:17.695Z,82.67
2022-10-11T00:43:48.316Z,82.67
2022-10-11T00:46:20.046Z,82.63
2022-10-11T00:49:02.049Z,82.70
2022-10-11T00:51:52.755Z,82.69
2022-10-11T00:54:28.340Z,82.78
2022-10-11T00:57:06.075Z,82.88
2022-10-11T00:59:44.436Z,82.87
2022-10-11T01:02:24.667Z,82.79
2022-10-11T01:05:11.367Z,82.74
2022-10-11T01:07:44.532Z,82.99
2022-10-11T01:10:15.076Z,83.17
2022-10-11T01:13:09.879Z,83.33
2022-10-11T01:15:55.843Z,83.43
2022-10-11T01:19:31.296Z,83.55
2022-10-11T01:22:38.197Z,83.66
2022-10-11T01:25:52.276Z,83.73
2022-10-11T01:28:49.789Z,83.79
2022-10-11T01:31:21.596Z,83.81
2022-10-11T01:34:06.106Z,83.82
2022-10-11T01:37:29.637Z,83.89
2022-10-11T01:40:09.975Z,83.94
2022-10-11T01:42:42.278Z,84.19
2022-10-11T01:45:18.136Z,84.41
2022-10-11T01:47:47.058Z,84.46
2022-10-11T01:50:47.535Z,84.52
2022-10-11T01:53:55.396Z,84.71
2022-10-11T01:56:49.066Z,84.58
2022-10-11T01:59:34.606Z,84.50
2022-10-11T02:02:31.556Z,84.56
2022-10-11T02:05:00.146Z,84.68
2022-10-11T02:08:02.396Z,84.76
2022-10-11T02:10:44.716Z,84.85
2022-10-11T02:13:28.955Z,84.81
2022-10-11T02:16:03.137Z,84.77
2022-10-11T02:18:39.555Z,85.04
2022-10-11T02:21:12.999Z,85.18
2022-10-11T02:23:54.058Z,85.17
2022-10-11T02:26:26.737Z,85.11
2022-10-11T02:29:01.482Z,85.19
2022-10-11T02:31:33.955Z,85.32
2022-10-11T02:34:14.635Z,85.63
2022-10-11T02:36:54.976Z,85.88
2022-10-11T02:39:42.975Z,86.09
2022-10-11T02:42:21.045Z,86.26
2022-10-11T02:45:06.239Z,86.32
2022-10-11T02:47:35.526Z,86.08
2022-10-11T02:50:15.557Z,85.88
2022-10-11T02:52:44.330Z,85.80
2022-10-11T02:55:13.076Z,85.77
2022-10-11T02:57:42.240Z,85.81
2022-10-11T03:00:12.075Z,85.74
2022-10-11T03:02:40.666Z,85.67
2022-10-11T03:05:09.627Z,85.59
2022-10-11T03:07:38.267Z,85.56
2022-10-11T03:10:07.701Z,85.42
2022-10-11T03:12:36.486Z,85.50
2022-10-11T03:15:05.997Z,85.50
2022-10-11T03:17:37.191Z,85.50
2022-10-11T03:20:07.257Z,85.50
2022-10-11T03:22:36.175Z,85.54
2022-10-11T03:25:05.179Z,85.51
2022-10-11T03:27:34.557Z,85.44
2022-10-11T03:30:05.235Z,85.53
2022-10-11T03:32:33.942Z,85.70
2022-10-11T03:35:02.636Z,85.70
2022-10-11T03:37:31.446Z,85.68
2022-10-11T03:40:00.439Z,85.64
2022-10-11T03:42:29.716Z,85.68
2022-10-11T03:45:00.098Z,85.85
2022-10-11T03:47:28.919Z,85.97
2022-10-11T03:49:57.777Z,86.22
2022-10-11T03:52:26.537Z,86.40
2022-10-11T03:54:55.196Z,86.51
2022-10-11T03:57:24.316Z,86.72
2022-10-11T03:59:53.000Z,86.65
2022-10-11T04:02:21.836Z,86.67
2022-10-11T04:04:50.436Z,86.70
2022-10-11T04:07:19.218Z,86.85
2022-10-11T04:09:47.940Z,86.88
2022-10-11T04:12:16.695Z,86.81
2022-10-11T04:14:45.476Z,86.89
2022-10-11T04:17:14.257Z,86.97
2022-10-11T04:19:42.956Z,86.91
2022-10-11T04:35:23.849Z,88.10
2022-10-11T04:37:52.498Z,88.09
2022-10-11T04:40:21.259Z,88.03
2022-10-11T04:42:54.124Z,88.02
2022-10-11T04:45:23.078Z,87.93
2022-10-11T04:47:57.878Z,87.65
2022-10-11T04:50:47.618Z,87.56
2022-10-11T04:53:17.177Z,87.50
2022-10-11T04:56:08.315Z,87.46
2022-10-11T04:58:42.443Z,87.54
2022-10-11T05:01:12.518Z,87.69
2022-10-11T05:03:41.668Z,87.74
2022-10-11T05:06:10.874Z,87.73
2022-10-11T05:08:40.138Z,87.79
2022-10-11T05:11:15.827Z,87.67
2022-10-11T05:13:48.738Z,87.73
2022-10-11T05:16:20.066Z,87.69
2022-10-11T05:18:49.238Z,87.63
2022-10-11T05:21:22.958Z,87.49
2022-10-11T05:23:55.858Z,87.34
2022-10-11T05:26:27.919Z,87.23
2022-10-11T05:28:57.928Z,87.09
2022-10-11T05:31:26.923Z,87.01
2022-10-11T05:33:55.898Z,86.87
2022-10-11T05:36:24.627Z,86.83
2022-10-11T05:38:53.378Z,86.81
2022-10-11T05:41:22.249Z,86.78
2022-10-11T05:43:51.259Z,86.68
2022-10-11T05:46:20.258Z,86.58
2022-10-11T05:48:49.157Z,86.50
2022-10-11T05:51:17.938Z,86.44
2022-10-11T05:53:47.338Z,86.30
2022-10-11T05:56:22.239Z,86.13
2022-10-11T05:58:51.838Z,85.98
2022-10-11T06:01:28.458Z,85.90
2022-10-11T06:04:00.024Z,85.89
2022-10-11T06:06:29.059Z,85.71
2022-10-11T06:08:57.999Z,85.49
2022-10-11T06:11:29.438Z,85.34
2022-10-11T06:16:37.096Z,85.41
2022-10-11T06:19:06.298Z,85.11
2022-10-11T06:21:34.988Z,85.07
2022-10-11T06:24:04.189Z,85.00
2022-10-11T06:26:33.408Z,84.87
2022-10-11T06:29:02.101Z,84.80
2022-10-11T06:31:31.401Z,84.77
2022-10-11T06:34:00.473Z,84.66
2022-10-11T06:36:29.257Z,84.59
2022-10-11T06:38:57.737Z,84.49
2022-10-11T06:41:29.586Z,84.47
2022-10-11T06:43:58.386Z,84.46
2022-10-11T06:46:28.682Z,84.38
2022-10-11T06:48:57.707Z,84.18
2022-10-11T06:51:26.696Z,83.98
2022-10-11T06:53:59.578Z,83.72
2022-10-11T06:56:31.396Z,83.01
2022-10-11T06:59:00.537Z,82.79
2022-10-11T07:01:29.081Z,82.12
2022-10-11T07:04:00.309Z,81.80
2022-10-11T07:06:30.604Z,80.48
2022-10-11T07:09:01.449Z,79.82
2022-10-11T07:11:30.882Z,79.88
2022-10-11T07:14:04.653Z,80.56
2022-10-11T07:16:33.430Z,80.84
2022-10-11T07:19:04.145Z,80.47
2022-10-11T07:21:35.026Z,80.23
2022-10-11T07:24:04.409Z,80.05
2022-10-11T07:26:38.202Z,79.61
2022-10-11T07:29:11.038Z,79.31
2022-10-11T07:31:42.871Z,78.92
2022-10-11T07:34:12.072Z,78.48
2022-10-11T07:36:40.950Z,78.87
2022-10-11T07:39:09.951Z,78.93
2022-10-11T07:41:44.616Z,78.27
2022-10-11T07:44:15.187Z,78.07
2022-10-11T07:46:43.677Z,78.00
2022-10-11T07:49:12.271Z,78.04
2022-10-11T07:51:41.050Z,77.53
2022-10-11T07:54:09.650Z,77.11
2022-10-11T07:56:40.597Z,77.32
2022-10-11T07:59:11.787Z,76.73
2022-10-11T08:01:40.557Z,76.83
2022-10-11T08:04:09.307Z,76.76
2022-10-11T08:06:37.997Z,76.40
2022-10-11T08:09:06.867Z,76.18
2022-10-11T08:11:37.946Z,75.82
2022-10-11T08:14:09.465Z,75.30
2022-10-11T08:16:39.736Z,74.58
2022-10-11T08:19:08.728Z,73.95
2022-10-11T08:21:37.265Z,73.49
2022-10-11T08:24:07.246Z,72.97
2022-10-11T08:26:36.098Z,72.41
2022-10-11T08:29:05.601Z,71.88
2022-10-11T08:31:35.920Z,71.95
2022-10-11T08:34:04.702Z,71.19
2022-10-11T08:36:33.900Z,71.99
2022-10-11T08:39:02.369Z,71.58
2022-10-11T08:41:56.807Z,71.51
2022-10-11T08:45:11.541Z,71.51
2022-10-11T08:47:44.736Z,70.74
2022-10-11T08:50:23.990Z,70.38
2022-10-11T08:53:07.023Z,70.63
2022-10-11T08:55:51.753Z,70.12
2022-10-11T08:58:26.673Z,70.23
2022-10-11T09:00:57.944Z,70.12
2022-10-11T09:03:46.962Z,69.51
2022-10-11T09:06:34.023Z,67.49
2022-10-11T09:09:39.268Z,66.95
2022-10-11T09:12:19.527Z,67.61
2022-10-11T09:15:31.208Z,67.30
2022-10-11T09:18:43.926Z,66.94
2022-10-11T09:21:33.923Z,67.03
2022-10-11T09:24:46.326Z,64.88
2022-10-11T09:27:57.277Z,64.90
2022-10-11T09:30:21.051Z,66.25
2022-10-11T09:33:00.628Z,66.09
2022-10-11T09:35:36.981Z,65.62
2022-10-11T09:38:22.467Z,64.33
2022-10-11T09:41:26.790Z,64.88
2022-10-11T09:43:55.677Z,65.14
2022-10-11T09:46:40.741Z,63.68
2022-10-11T09:49:16.422Z,63.99
2022-10-11T09:51:56.123Z,65.14
2022-10-11T09:54:52.298Z,62.22
2022-10-11T09:57:36.402Z,62.60
2022-10-11T10:00:28.141Z,62.70
2022-10-11T10:03:01.438Z,62.58
2022-10-11T10:05:38.887Z,61.35
2022-10-11T10:08:10.297Z,61.04
2022-10-11T10:10:55.862Z,60.96
2022-10-11T10:13:52.007Z,62.00
2022-10-11T10:16:34.834Z,62.07
2022-10-11T10:19:23.620Z,62.76
2022-10-11T10:21:56.258Z,61.47
2022-10-11T10:24:39.779Z,60.75
2022-10-11T10:27:11.645Z,60.71
2022-10-11T10:29:41.670Z,61.45
2022-10-11T10:32:23.085Z,61.98
2022-10-11T10:35:15.903Z,62.27
2022-10-11T10:38:08.908Z,61.10
2022-10-11T10:40:50.712Z,61.47
2022-10-11T10:43:24.889Z,62.04
2022-10-11T10:46:29.188Z,61.39
2022-10-11T10:49:59.055Z,61.12
2022-10-11T10:52:59.849Z,61.81
2022-10-11T10:55:43.072Z,61.07
2022-10-11T10:58:50.370Z,61.23
2022-10-11T11:01:32.765Z,61.15
2022-10-11T11:04:28.390Z,61.87
2022-10-11T11:07:32.911Z,61.86
2022-10-11T11:10:18.609Z,62.40
2022-10-11T11:13:05.841Z,61.99
2022-10-11T11:16:04.171Z,60.92
2022-10-11T11:19:05.936Z,60.84
2022-10-11T11:21:44.080Z,60.84
2022-10-11T11:24:35.912Z,59.88
2022-10-11T11:27:33.875Z,60.32
2022-10-11T11:30:12.714Z,58.27
2022-10-11T11:33:14.159Z,58.56
2022-10-11T11:35:53.921Z,57.38
2022-10-11T11:38:49.938Z,56.88
2022-10-11T11:41:28.352Z,57.89
2022-10-11T11:44:20.146Z,57.91
2022-10-11T11:47:03.829Z,57.32
2022-10-11T11:49:38.269Z,56.72
2022-10-11T11:52:15.410Z,56.73
2022-10-11T11:55:06.336Z,56.50
2022-10-11T11:58:41.181Z,56.05
2022-10-11T12:01:31.820Z,55.28
2022-10-11T12:04:21.252Z,55.38
2022-10-11T12:07:17.248Z,55.30
2022-10-11T12:09:53.031Z,54.31
2022-10-11T12:12:38.793Z,54.10
2022-10-11T12:15:10.773Z,54.68
2022-10-11T12:17:57.998Z,55.11
2022-10-11T12:20:39.013Z,52.52
2022-10-11T12:23:29.711Z,51.93
2022-10-11T12:26:28.965Z,52.49
2022-10-11T12:29:20.795Z,53.07
2022-10-11T12:32:37.512Z,52.26
2022-10-11T12:35:32.013Z,51.94
2022-10-11T12:38:31.922Z,51.05
2022-10-11T12:41:09.745Z,51.06
2022-10-11T12:43:51.010Z,51.64
2022-10-11T12:46:29.027Z,51.18
2022-10-11T12:49:15.922Z,51.62
2022-10-11T12:52:42.171Z,51.84
2022-10-11T12:55:39.833Z,51.76
2022-10-11T12:58:48.751Z,51.87
2022-10-11T13:01:24.179Z,51.65
2022-10-11T13:04:13.470Z,51.78
2022-10-11T13:06:54.073Z,51.78
2022-10-11T13:09:36.373Z,50.59
2022-10-11T13:12:20.494Z,49.42
2022-10-11T13:15:07.492Z,49.18
2022-10-11T13:17:39.853Z,49.28
2022-10-11T13:20:26.726Z,49.81
2022-10-11T13:22:57.730Z,49.85
2022-10-11T13:25:31.031Z,50.07
2022-10-11T13:28:01.411Z,49.64
2022-10-11T13:30:34.740Z,50.05
2022-10-11T13:33:14.492Z,51.16
2022-10-11T13:35:43.492Z,51.25
2022-10-11T13:38:35.392Z,51.77
2022-10-11T13:41:11.082Z,51.22
2022-10-11T13:43:41.136Z,51.84
2022-10-11T13:46:24.411Z,52.01
2022-10-11T13:49:23.214Z,52.02
2022-10-11T13:52:03.042Z,51.79
2022-10-11T13:55:24.973Z,51.83
2022-10-11T13:57:55.160Z,52.31
2022-10-11T14:00:39.631Z,52.32
2022-10-11T14:03:14.191Z,51.94
2022-10-11T14:05:57.011Z,51.11
2022-10-11T14:08:50.734Z,51.01
2022-10-11T14:11:36.660Z,48.97
2022-10-11T14:14:34.094Z,49.29
2022-10-11T14:17:46.251Z,49.29
2022-10-11T14:20:33.973Z,49.33
2022-10-11T14:23:06.213Z,49.62
2022-10-11T14:25:35.551Z,50.07
2022-10-11T14:28:06.753Z,49.47
2022-10-11T14:30:36.971Z,49.51
2022-10-11T14:33:08.482Z,50.06
2022-10-11T14:35:44.633Z,49.95
2022-10-11T14:38:18.084Z,50.19
2022-10-11T14:40:47.851Z,50.48
2022-10-11T14:43:18.452Z,50.53
2022-10-11T14:45:48.412Z,50.95
2022-10-11T14:48:42.929Z,51.14
2022-10-11T14:51:14.011Z,51.48
2022-10-11T14:53:46.694Z,51.67
2022-10-11T14:56:21.129Z,51.75
2022-10-11T14:58:52.090Z,51.54
2022-10-11T15:01:20.787Z,51.66
2022-10-11T15:03:49.434Z,51.69
2022-10-11T15:06:54.893Z,51.89
2022-10-11T15:09:26.451Z,52.00
2022-10-11T15:11:57.833Z,52.44
2022-10-11T15:14:28.211Z,52.46
2022-10-11T15:16:57.311Z,52.65
2022-10-11T15:19:27.033Z,53.14
2022-10-11T15:21:56.111Z,53.69
2022-10-11T15:24:25.116Z,53.93
2022-10-11T15:26:53.994Z,54.14
2022-10-11T15:29:24.631Z,54.65
2022-10-11T15:31:54.251Z,55.04
2022-10-11T15:34:24.471Z,55.49
2022-10-11T15:36:53.251Z,55.92
2022-10-11T15:39:32.276Z,56.22
2022-10-11T15:42:01.391Z,56.38
2022-10-11T15:44:30.212Z,56.37
2022-10-11T15:46:58.952Z,56.64
2022-10-11T15:49:27.725Z,56.79
2022-10-11T15:51:56.411Z,56.90
2022-10-11T15:54:25.313Z,57.23
2022-10-11T15:56:54.214Z,57.46
2022-10-11T15:59:23.111Z,57.79
2022-10-11T16:01:51.963Z,58.08
2022-10-11T16:04:20.672Z,58.39
2022-10-11T16:06:49.351Z,58.70
2022-10-11T16:09:18.051Z,58.91
2022-10-11T16:11:46.942Z,59.17
2022-10-11T16:14:15.984Z,59.33
2022-10-11T16:16:44.737Z,59.81
2022-10-11T16:19:13.818Z,60.07
2022-10-11T16:21:44.312Z,60.54
2022-10-11T16:24:13.353Z,61.40
2022-10-11T16:26:42.542Z,62.20
2022-10-11T16:29:11.534Z,62.74
2022-10-11T16:31:40.433Z,63.46
2022-10-11T16:34:09.692Z,64.23
2022-10-11T16:36:43.036Z,64.47
2022-10-11T16:39:18.771Z,65.30
2022-10-11T16:41:48.470Z,66.27
2022-10-11T16:44:21.791Z,67.32
2022-10-11T16:46:51.291Z,67.72
2022-10-11T16:49:25.217Z,67.85
2022-10-11T16:51:57.411Z,68.26
2022-10-11T16:54:33.451Z,68.76
2022-10-11T16:57:02.210Z,68.98
2022-10-11T16:59:31.600Z,68.97
2022-10-11T17:02:00.511Z,69.43
2022-10-11T17:04:29.190Z,70.09
2022-10-11T17:06:58.663Z,70.73
2022-10-11T17:09:27.751Z,71.05
2022-10-11T17:11:56.472Z,71.28
2022-10-11T17:14:25.171Z,71.49
2022-10-11T17:16:53.853Z,71.68
2022-10-11T17:19:22.631Z,71.97
2022-10-11T17:21:51.531Z,72.16
2022-10-11T17:24:20.405Z,72.40
2022-10-11T17:26:49.272Z,72.50
2022-10-11T17:29:19.011Z,72.59
2022-10-11T17:31:49.387Z,72.63
2022-10-11T17:34:18.898Z,72.82
2022-10-11T17:36:47.955Z,72.91
2022-10-11T17:39:20.352Z,73.55
2022-10-11T17:41:49.871Z,74.06
2022-10-11T17:44:19.351Z,74.39
2022-10-11T17:46:49.203Z,74.87
2022-10-11T17:49:18.160Z,75.12
2022-10-11T17:51:47.050Z,75.17
2022-10-11T17:54:16.573Z,75.68
2022-10-11T17:56:46.300Z,76.18
2022-10-11T17:59:22.590Z,76.56
2022-10-11T18:01:51.932Z,76.81
2022-10-11T18:04:23.431Z,77.06
2022-10-11T18:06:55.208Z,77.16
2022-10-11T18:09:26.791Z,76.82
2022-10-11T18:11:57.937Z,76.79
2022-10-11T18:14:28.971Z,76.72
2022-10-11T18:16:58.223Z,77.18
2022-10-11T18:19:27.882Z,77.66
2022-10-11T18:21:57.233Z,77.93
2022-10-11T18:24:26.548Z,78.46
2022-10-11T18:26:57.272Z,78.34
2022-10-11T18:29:26.852Z,78.51
2022-10-11T18:31:56.760Z,78.94
2022-10-11T18:34:26.772Z,79.35
2022-10-11T18:36:56.779Z,79.34
2022-10-11T18:39:25.674Z,79.27
2022-10-11T18:41:54.451Z,79.22
2022-10-11T18:44:23.271Z,79.10
2022-10-11T18:46:52.351Z,79.18
2022-10-11T18:49:21.331Z,79.24
2022-10-11T18:51:50.113Z,79.35
2022-10-11T18:54:21.343Z,79.32
2022-10-11T18:56:50.250Z,79.26
2022-10-11T18:59:20.535Z,79.37
2022-10-11T19:01:52.719Z,79.56
2022-10-11T19:04:22.032Z,79.64
2022-10-11T19:06:51.036Z,79.75
2022-10-11T19:09:23.611Z,79.95
2022-10-11T19:11:56.310Z,80.09
2022-10-11T19:14:29.434Z,80.08
2022-10-11T19:16:58.796Z,80.18
2022-10-11T19:19:30.151Z,80.44
2022-10-11T19:21:59.552Z,80.67
2022-10-11T19:24:30.711Z,80.67
2022-10-11T19:27:02.799Z,81.08
2022-10-11T19:29:32.860Z,81.39
2022-10-11T19:32:03.951Z,81.44
2022-10-11T19:34:33.310Z,81.50
2022-10-11T19:37:04.104Z,81.34
2022-10-11T19:39:33.156Z,81.09
2022-10-11T19:42:02.068Z,80.89
2022-10-11T19:44:34.441Z,80.76
2022-10-11T19:47:06.576Z,80.88
2022-10-11T19:49:36.104Z,80.98
2022-10-11T19:52:05.184Z,81.17
2022-10-11T19:54:33.871Z,81.25
2022-10-11T19:57:02.603Z,81.23
2022-10-11T19:59:31.473Z,81.20
2022-10-11T20:02:00.433Z,81.24
2022-10-11T20:07:18.292Z,81.46
2022-10-11T20:09:47.092Z,81.48
2022-10-11T20:12:16.180Z,81.50
2022-10-11T20:14:45.050Z,81.67
2022-10-11T20:17:14.174Z,82.03
2022-10-11T20:19:42.865Z,82.09
2022-10-11T20:22:11.651Z,82.11
2022-10-11T20:24:40.230Z,82.18
2022-10-11T20:27:09.153Z,82.25
2022-10-11T20:29:38.012Z,82.41
2022-10-11T20:32:06.932Z,82.64
2022-10-11T20:34:39.901Z,82.60
2022-10-11T20:37:08.886Z,82.53
2022-10-11T20:39:37.763Z,82.46
2022-10-11T20:42:06.711Z,82.53
2022-10-11T20:44:35.550Z,82.52
2022-10-11T20:47:04.468Z,82.71
2022-10-11T20:49:33.512Z,82.79
2022-10-11T20:52:02.531Z,82.92
2022-10-11T20:54:31.421Z,83.39
2022-10-11T20:57:00.833Z,83.88
2022-10-11T20:59:29.410Z,84.06
2022-10-11T21:01:58.215Z,83.93
2022-10-11T21:04:27.184Z,83.90
2022-10-11T21:06:55.990Z,84.06
2022-10-11T21:09:24.990Z,83.86
2022-10-11T21:11:53.771Z,83.73
2022-10-11T21:14:23.102Z,83.55
2022-10-11T21:16:52.631Z,83.63
2022-10-11T21:19:21.272Z,83.99
2022-10-11T21:21:53.645Z,84.10
2022-10-11T21:24:23.091Z,84.10
2022-10-11T21:26:52.731Z,84.03
2022-10-11T21:29:22.774Z,84.05
2022-10-11T21:31:51.543Z,84.33
2022-10-11T21:34:20.251Z,84.55
2022-10-11T21:36:48.931Z,84.84
2022-10-11T21:39:17.711Z,85.08
2022-10-11T21:41:46.711Z,85.19
2022-10-11T21:44:16.031Z,85.25
2022-10-11T21:49:33.450Z,85.13
2022-10-11T21:52:03.594Z,85.10
2022-10-11T21:54:32.554Z,85.38
2022-10-11T21:57:01.450Z,85.58
2022-10-11T21:59:30.753Z,85.75
2022-10-11T22:02:01.843Z,85.69
2022-10-11T22:04:31.132Z,85.56
2022-10-11T22:06:59.920Z,85.38
2022-10-11T22:09:30.331Z,85.44
2022-10-11T22:12:04.680Z,85.66
2022-10-11T22:14:33.815Z,85.71
2022-10-11T22:17:02.563Z,85.91
2022-10-11T22:19:31.351Z,85.94
2022-10-11T22:22:00.091Z,85.90
2022-10-11T22:24:29.811Z,85.90
2022-10-11T22:26:58.751Z,85.91
2022-10-11T22:29:33.190Z,85.91
2022-10-11T22:32:03.500Z,86.05
2022-10-11T22:34:34.110Z,86.04
2022-10-11T22:37:02.591Z,85.85
2022-10-11T22:39:31.621Z,85.68
2022-10-11T22:42:00.289Z,85.47
2022-10-11T22:44:28.960Z,85.34
2022-10-11T22:46:57.532Z,85.34
2022-10-11T22:49:26.050Z,85.50
2022-10-11T22:51:54.632Z,85.96
2022-10-11T22:54:23.322Z,86.11
2022-10-11T22:56:52.494Z,86.02
2022-10-11T22:59:21.111Z,85.85
2022-10-11T23:01:49.731Z,85.93
2022-10-11T23:04:18.652Z,85.87
2022-10-11T23:06:47.553Z,85.75
2022-10-11T23:09:16.740Z,86.09
2022-10-11T23:11:45.370Z,86.25
2022-10-11T23:14:14.013Z,86.26
2022-10-11T23:16:42.541Z,86.29
2022-10-11T23:19:11.051Z,86.33
2022-10-11T23:21:39.634Z,86.40
2022-10-11T23:24:08.661Z,86.50
2022-10-11T23:26:37.655Z,86.49
2022-10-11T23:29:06.591Z,86.49
2022-10-11T23:31:35.141Z,86.54
2022-10-11T23:34:03.701Z,86.63
2022-10-11T23:36:37.751Z,86.35
2022-10-11T23:39:14.012Z,86.31
2022-10-11T23:45:37.310Z,86.58
2022-10-11T23:48:37.641Z,86.68
2022-10-11T23:51:50.883Z,86.76
2022-10-11T23:54:27.890Z,86.79
2022-10-11T23:58:39.851Z,86.80
